Terminal Aerodrome Forecast
Issued by NWS Brownsville, TX

Home | Current Version | Previous Version | Text Only | Print | Product List | Glossary On
Versions: 1 2 3 4 5 6 7 8 9 10 11 12 13 14 15 16 17 18 19 20
000
FTUS44 KBRO 251738
TAFBRO
TAF
KBRO 251738Z 2518/2618 18008KT P6SM SCT040
     FM252100 15011KT P6SM SCT040
     FM260400 15003KT 5SM BR BKN015
     FM261600 17010KT P6SM SCT040=

USA.gov is the U.S. government's official web portal to all federal, state and local government web resources and services.